Time;durP1;ratioP1;P1;durP2;ratioP2;P2;SDS_P1;SDS_P2;PMS_P1;PMS_P2;Temp;Humidity;BMP_temperature;BMP_pressure;BME280_temperature;BME280_humidity;BME280_pressure;Samples;Min_cycle;Max_cycle;Signal;HPM_P1;HPM_P2
2022/12/22 03:27:27;;;;;;;;;;;0.70;87.40;;;-151.14;100.00;62537.16;5032868;28;19921;-79
2022/12/22 03:29:55;;;;;;;;;;;0.70;87.40;;;-151.14;100.00;62537.16;5051152;28;19943;-79
2022/12/22 03:32:24;;;;;;;;;;;0.70;88.20;;;-151.14;100.00;62537.16;5033456;28;19921;-79
2022/12/22 03:34:52;;;;;;;;;;;0.70;87.50;;;-151.14;100.00;62537.16;5033149;28;19928;-79
2022/12/22 03:37:20;;;;;;;;;;;0.70;87.50;;;-151.14;100.00;62537.16;5033447;28;19921;-79
2022/12/22 03:39:47;;;;;;;;;;;0.70;87.50;;;-151.14;100.00;62537.16;5016954;28;19921;-79
2022/12/22 03:47:47;;;;;;;;;;;0.70;87.40;;;-151.14;100.00;62537.16;5016659;28;19920;-79
2022/12/22 03:50:15;;;;;;;;;;;0.70;87.40;;;-151.14;100.00;62537.16;5049810;28;19920;-79
2022/12/22 03:52:43;;;;;;;;;;;0.70;87.50;;;-151.14;100.00;62537.16;5033194;28;19935;-79
2022/12/22 03:55:11;;;;;;;;;;;0.70;87.40;;;-151.14;100.00;62537.16;5032854;28;20212;-79
2022/12/22 03:57:39;;;;;;;;;;;0.70;87.40;;;-151.14;100.00;62537.16;5033131;28;20223;-79
2022/12/22 04:00:08;;;;;;;;;;;0.70;87.40;;;-151.14;100.00;62537.16;5033070;28;19943;-79
2022/12/22 04:02:39;;;;;;;;;;;0.70;87.40;;;-151.14;100.00;62537.16;5033023;28;19927;-79
2022/12/22 04:05:09;;;;;;;;;;;0.70;87.30;;;-151.14;100.00;62537.16;5015986;28;19927;-79
2022/12/22 04:07:37;;;;;;;;;;;0.70;87.50;;;-151.14;100.00;62537.16;5017327;28;19921;-79
2022/12/22 04:12:54;;;;;;;;;;;0.70;87.50;;;-151.14;100.00;62537.16;5019823;28;19921;-79
2022/12/22 04:15:22;;;;;;;;;;;0.70;87.30;;;-151.14;100.00;62537.16;5036052;28;20231;-79
2022/12/22 04:17:50;;;;;;;;;;;0.70;87.40;;;-151.14;100.00;62537.16;5052644;28;19921;-78
2022/12/22 04:20:20;;;;;;;;;;;0.70;87.50;;;-151.14;100.00;62537.16;5019849;28;19927;-79
2022/12/22 04:22:48;;;;;;;;;;;0.70;87.50;;;-151.14;100.00;62537.16;5052814;28;19927;-79
2022/12/22 04:25:16;;;;;;;;;;;0.70;87.40;;;-151.14;100.00;62537.16;5035904;28;19927;-79
2022/12/22 04:27:44;;;;;;;;;;;0.70;87.40;;;-151.14;100.00;62537.16;5036004;28;19921;-79
2022/12/22 04:30:12;;;;;;;;;;;0.70;87.60;;;-151.14;100.00;62537.16;5019811;28;19927;-79
2022/12/22 04:32:40;;;;;;;;;;;0.70;87.40;;;-151.14;100.00;62537.16;5019542;28;20120;-79
2022/12/22 04:35:09;;;;;;;;;;;0.70;87.40;;;-151.14;100.00;62537.16;5035816;28;19923;-79
2022/12/22 04:37:38;;;;;;;;;;;0.70;87.40;;;-151.14;100.00;62537.16;5035772;28;19921;-78
2022/12/22 04:40:07;;;;;;;;;;;0.70;87.40;;;-151.14;100.00;62537.16;5053861;28;20234;-78
2022/12/22 04:42:35;;;;;;;;;;;0.60;87.30;;;-151.14;100.00;62537.16;5052110;28;19929;-79
2022/12/22 04:45:03;;;;;;;;;;;0.70;87.30;;;-151.14;100.00;62537.16;5019040;28;19935;-79
2022/12/22 04:47:31;;;;;;;;;;;0.70;87.40;;;-151.14;100.00;62537.16;5035641;28;20201;-79
2022/12/22 04:50:11;;;;;;;;;;;0.70;87.50;;;-151.14;100.00;62537.16;5035816;28;19920;-79
2022/12/22 04:52:42;;;;;;;;;;;0.70;87.40;;;-151.14;100.00;62537.16;5013820;28;20213;-79
2022/12/22 04:55:29;;;;;;;;;;;0.70;87.40;;;-151.14;100.00;62537.16;4995787;28;19921;-78
2022/12/22 05:01:11;;;;;;;;;;;0.70;87.30;;;-151.14;100.00;62537.16;5011459;28;19921;-79
2022/12/22 05:07:25;;;;;;;;;;;0.70;87.50;;;-151.14;100.00;62537.16;5008073;28;19921;-78
2022/12/22 05:09:54;;;;;;;;;;;0.70;87.60;;;-151.14;100.00;62537.16;4980189;28;19928;-79
2022/12/22 05:15:08;;;;;;;;;;;0.70;87.50;;;-151.14;100.00;62537.16;4979536;28;20209;-79
2022/12/22 05:17:36;;;;;;;;;;;0.60;87.40;;;-151.14;100.00;62537.16;4996284;28;19922;-79
2022/12/22 05:20:04;;;;;;;;;;;0.70;87.50;;;-151.14;100.00;62537.16;4995081;28;20112;-79
2022/12/22 05:22:32;;;;;;;;;;;0.70;88.30;;;-151.14;100.00;62537.16;5026040;28;19921;-79
2022/12/22 05:25:01;;;;;;;;;;;0.60;87.20;;;-151.14;100.00;62537.16;5018184;28;20247;-79
2022/12/22 05:27:29;;;;;;;;;;;0.60;87.30;;;-151.14;100.00;62537.16;5035265;28;19921;-79
2022/12/22 05:29:57;;;;;;;;;;;0.60;87.50;;;-151.14;100.00;62537.16;5035470;28;19927;-79
2022/12/22 05:32:25;;;;;;;;;;;0.60;87.20;;;-151.14;100.00;62537.16;5018684;28;19921;-79
2022/12/22 05:34:53;;;;;;;;;;;0.60;87.30;;;-151.14;100.00;62537.16;5052290;28;19921;-79
2022/12/22 05:37:21;;;;;;;;;;;0.60;87.20;;;-151.14;100.00;62537.16;5018515;28;19920;-79
2022/12/22 05:39:49;;;;;;;;;;;0.60;87.30;;;-151.14;100.00;62537.16;5035303;28;19921;-79
2022/12/22 05:42:34;;;;;;;;;;;0.60;87.20;;;-151.14;100.00;62537.16;5035172;28;19921;-79
2022/12/22 05:45:04;;;;;;;;;;;0.60;87.40;;;-151.14;100.00;62537.16;5051871;28;19921;-79
2022/12/22 05:47:32;;;;;;;;;;;0.60;87.40;;;-151.14;100.00;62537.16;5006782;28;19921;-79
2022/12/22 05:50:00;;;;;;;;;;;0.60;87.50;;;-151.14;100.00;62537.16;5015154;28;19921;-79
2022/12/22 05:52:28;;;;;;;;;;;0.60;87.60;;;-151.14;100.00;62537.16;5015122;28;19922;-78
2022/12/22 05:54:56;;;;;;;;;;;0.60;87.50;;;-151.14;100.00;62537.16;5014540;28;20239;-79
2022/12/22 05:57:25;;;;;;;;;;;0.60;87.50;;;-151.14;100.00;62537.16;4998992;28;19921;-79
2022/12/22 05:59:53;;;;;;;;;;;0.60;87.50;;;-151.14;100.00;62537.16;5015150;28;19921;-79
2022/12/22 06:02:21;;;;;;;;;;;0.60;87.50;;;-151.14;100.00;62537.16;5006363;28;19921;-79
2022/12/22 06:04:49;;;;;;;;;;;0.60;87.40;;;-151.14;100.00;62537.16;5033972;28;19921;-79
2022/12/22 06:07:17;;;;;;;;;;;0.60;87.50;;;-151.14;100.00;62537.16;5018127;28;19928;-79
2022/12/22 06:09:44;;;;;;;;;;;0.60;87.40;;;-151.14;100.00;62537.16;5052241;28;19921;-79
2022/12/22 06:12:13;;;;;;;;;;;0.60;87.40;;;-151.14;100.00;62537.16;5018066;28;19927;-79
2022/12/22 06:14:42;;;;;;;;;;;0.60;87.40;;;-151.14;100.00;62537.16;5051667;28;19927;-79
2022/12/22 06:17:10;;;;;;;;;;;0.60;87.40;;;-151.14;100.00;62537.16;5051047;28;19921;-79
2022/12/22 06:19:38;;;;;;;;;;;0.60;87.40;;;-151.14;100.00;62537.16;5017898;28;19921;-79
2022/12/22 06:22:06;;;;;;;;;;;0.60;87.50;;;-151.14;100.00;62537.16;5018008;28;19921;-78
2022/12/22 06:24:34;;;;;;;;;;;0.60;87.40;;;-151.14;100.00;62537.16;5034227;28;19935;-79
2022/12/22 06:27:02;;;;;;;;;;;0.60;87.50;;;-151.14;100.00;62537.16;5033923;28;19921;-79
2022/12/22 06:29:30;;;;;;;;;;;0.60;87.40;;;-151.14;100.00;62537.16;5034548;28;19920;-79
2022/12/22 06:31:59;;;;;;;;;;;0.60;87.40;;;-151.14;100.00;62537.16;5033867;28;19921;-79
2022/12/22 06:34:27;;;;;;;;;;;0.60;87.50;;;-151.14;100.00;62537.16;5034157;28;19920;-79
2022/12/22 06:36:55;;;;;;;;;;;0.60;87.40;;;-151.14;100.00;62537.16;5017318;28;19920;-79
2022/12/22 06:39:23;;;;;;;;;;;0.60;87.40;;;-151.14;100.00;62537.16;5017785;28;19936;-78
2022/12/22 06:44:35;;;;;;;;;;;0.60;87.30;;;-151.14;100.00;62537.16;4994726;28;20209;-79
2022/12/22 06:47:05;;;;;;;;;;;0.60;87.40;;;-151.14;100.00;62537.16;4994441;28;19928;-78
2022/12/22 06:49:33;;;;;;;;;;;0.60;87.50;;;-151.14;100.00;62537.16;4978453;28;19921;-79
2022/12/22 06:52:01;;;;;;;;;;;0.60;87.40;;;-151.14;100.00;62537.16;5012059;28;19922;-79
2022/12/22 06:54:29;;;;;;;;;;;0.60;87.40;;;-151.14;100.00;62537.16;5012002;28;19927;-79
2022/12/22 06:57:00;;;;;;;;;;;0.60;87.50;;;-151.14;100.00;62537.16;4994410;28;20116;-79
2022/12/22 06:59:28;;;;;;;;;;;0.60;87.50;;;-151.14;100.00;62537.16;5011973;28;19945;-79
2022/12/22 07:01:56;;;;;;;;;;;0.60;87.40;;;-151.14;100.00;62537.16;4994605;28;20098;-79
2022/12/22 07:04:25;;;;;;;;;;;0.60;87.40;;;-151.14;100.00;62537.16;4978015;28;19927;-79
2022/12/22 07:06:53;;;;;;;;;;;0.60;87.30;;;-151.14;100.00;62537.16;4993933;28;19922;-79
2022/12/22 07:09:21;;;;;;;;;;;0.60;87.40;;;-151.14;100.00;62537.16;5011925;28;19921;-79
2022/12/22 07:11:49;;;;;;;;;;;0.70;87.50;;;-151.14;100.00;62537.16;4994507;28;19921;-79
2022/12/22 07:14:17;;;;;;;;;;;0.60;87.50;;;-151.14;100.00;62537.16;5022211;28;20234;-79
2022/12/22 07:16:45;;;;;;;;;;;0.70;87.50;;;-151.14;100.00;62537.16;5016839;28;19921;-79
2022/12/22 07:19:13;;;;;;;;;;;0.70;87.50;;;-151.14;100.00;62537.16;5004153;28;19921;-79
2022/12/22 07:21:43;;;;;;;;;;;0.70;88.30;;;-151.14;100.00;62537.16;4997588;28;19921;-79
2022/12/22 07:24:35;;;;;;;;;;;0.70;87.40;;;-151.14;100.00;62537.16;5041783;28;19921;-79
2022/12/22 07:27:03;;;;;;;;;;;0.70;87.30;;;-151.14;100.00;62537.16;5032931;28;19927;-79
2022/12/22 07:29:31;;;;;;;;;;;0.70;87.30;;;-151.14;100.00;62537.16;5033550;28;19921;-79
2022/12/22 07:31:59;;;;;;;;;;;0.70;87.30;;;-151.14;100.00;62537.16;5033411;28;19920;-79
2022/12/22 07:34:38;;;;;;;;;;;0.70;87.20;;;-151.14;100.00;62537.16;5038004;28;20219;-79
2022/12/22 07:37:08;;;;;;;;;;;0.70;87.20;;;-151.14;100.00;62537.16;4997204;28;19929;-79
2022/12/22 07:39:36;;;;;;;;;;;0.80;87.20;;;-151.14;100.00;62537.16;5031185;28;19921;-79
2022/12/22 07:44:49;;;;;;;;;;;0.70;87.10;;;-151.14;100.00;62537.16;5016690;28;20043;-79
2022/12/22 07:47:18;;;;;;;;;;;0.80;87.10;;;-151.14;100.00;62537.16;5016677;28;19921;-79
2022/12/22 07:52:32;;;;;;;;;;;0.80;87.10;;;-151.14;100.00;62537.16;5017019;28;19921;-79
2022/12/22 07:55:00;;;;;;;;;;;0.80;87.10;;;-151.14;100.00;62537.16;5000080;28;20124;-79
2022/12/22 07:57:28;;;;;;;;;;;0.70;87.10;;;-151.14;100.00;62537.16;5016752;28;19922;-79
2022/12/22 07:59:56;;;;;;;;;;;0.80;87.10;;;-151.14;100.00;62537.16;5017022;28;19927;-79
2022/12/22 08:02:24;;;;;;;;;;;0.80;87.10;;;-151.14;100.00;62537.16;5017127;28;19928;-79
2022/12/22 08:04:52;;;;;;;;;;;0.80;87.00;;;-151.14;100.00;62537.16;5016316;28;20205;-79
2022/12/22 08:07:20;;;;;;;;;;;0.70;87.20;;;-151.14;100.00;62537.16;5034232;28;20134;-79
2022/12/22 08:09:49;;;;;;;;;;;0.70;87.30;;;-151.14;100.00;62537.16;5000049;28;19928;-79
2022/12/22 08:12:20;;;;;;;;;;;0.70;87.20;;;-151.14;100.00;62537.16;5016491;28;20231;-79
2022/12/22 08:14:48;;;;;;;;;;;0.80;87.10;;;-151.14;100.00;62537.16;4999819;28;20116;-79
2022/12/22 08:17:16;;;;;;;;;;;0.80;87.00;;;-151.14;100.00;62537.16;5016977;28;19928;-79
2022/12/22 08:19:44;;;;;;;;;;;0.80;86.90;;;-151.14;100.00;62537.16;5017262;28;19921;-79
2022/12/22 08:22:12;;;;;;;;;;;0.80;86.80;;;-151.14;100.00;62537.16;5016447;28;19921;-79
2022/12/22 08:24:40;;;;;;;;;;;0.80;86.80;;;-151.14;100.00;62537.16;5015731;28;20114;-79
2022/12/22 08:27:15;;;;;;;;;;;0.90;86.70;;;-151.14;100.00;62537.16;5016319;28;19921;-79
2022/12/22 08:29:48;;;;;;;;;;;0.90;86.70;;;-151.14;100.00;62537.16;5000068;28;19955;-79
2022/12/22 08:32:16;;;;;;;;;;;0.90;86.60;;;-151.14;100.00;62537.16;5016384;28;19921;-79
2022/12/22 08:34:44;;;;;;;;;;;0.90;86.40;;;-151.14;100.00;62537.16;5015688;28;19921;-80
2022/12/22 08:37:13;;;;;;;;;;;0.90;86.40;;;-151.14;100.00;62537.16;4999921;28;19940;-79
2022/12/22 08:39:41;;;;;;;;;;;0.90;86.30;;;-151.14;100.00;62537.16;5016012;28;19921;-79
2022/12/22 08:42:10;;;;;;;;;;;0.90;86.20;;;-151.14;100.00;62537.16;5016232;28;20128;-79
2022/12/22 08:44:39;;;;;;;;;;;0.90;86.40;;;-151.14;100.00;62537.16;5032528;28;19921;-79
2022/12/22 08:47:08;;;;;;;;;;;0.90;86.40;;;-151.14;100.00;62537.16;5016016;28;19922;-79
2022/12/22 08:49:36;;;;;;;;;;;0.90;86.30;;;-151.14;100.00;62537.16;5000058;28;19928;-80
2022/12/22 08:52:04;;;;;;;;;;;0.80;86.30;;;-151.14;100.00;62537.16;5016234;28;19928;-80
2022/12/22 08:54:32;;;;;;;;;;;0.90;86.40;;;-151.14;100.00;62537.16;5014628;28;20124;-80
2022/12/22 08:57:00;;;;;;;;;;;0.90;86.40;;;-151.14;100.00;62537.16;5015535;28;19921;-80
2022/12/22 08:59:28;;;;;;;;;;;0.80;86.40;;;-151.14;100.00;62537.16;4999712;28;19921;-80
2022/12/22 09:02:49;;;;;;;;;;;0.80;86.50;;;-151.14;100.00;62537.16;5016051;28;19921;-80
2022/12/22 09:05:37;;;;;;;;;;;0.80;86.40;;;-151.14;100.00;62537.16;4998869;28;19927;-80
2022/12/22 09:08:26;;;;;;;;;;;0.80;86.50;;;-151.14;100.00;62537.16;5015657;28;19921;-80
2022/12/22 09:13:59;;;;;;;;;;;0.80;86.50;;;-151.14;100.00;62537.16;4883297;29;19945;-80
2022/12/22 09:16:28;;;;;;;;;;;0.80;86.60;;;-151.14;100.00;62537.16;4949365;28;20232;-80
2022/12/22 09:18:58;;;;;;;;;;;0.80;86.60;;;-151.14;100.00;62537.16;5000258;28;19927;-80
2022/12/22 09:21:26;;;;;;;;;;;0.80;86.60;;;-151.14;100.00;62537.16;5015775;28;19921;-80
2022/12/22 09:23:54;;;;;;;;;;;0.80;86.60;;;-151.14;100.00;62537.16;4998986;28;19921;-80
2022/12/22 09:26:23;;;;;;;;;;;0.80;86.40;;;-151.14;100.00;62537.16;5015257;28;19921;-80
2022/12/22 09:28:50;;;;;;;;;;;0.80;86.40;;;-151.14;100.00;62537.16;4999116;28;19928;-80
2022/12/22 09:31:51;;;;;;;;;;;0.80;86.40;;;-151.14;100.00;62537.16;5027540;28;20243;-80
2022/12/22 09:34:24;;;;;;;;;;;0.80;86.40;;;-151.14;100.00;62537.16;5018734;28;19927;-80
2022/12/22 09:36:52;;;;;;;;;;;0.80;86.40;;;-151.14;100.00;62537.16;5018248;28;19921;-80
2022/12/22 09:39:32;;;;;;;;;;;0.80;86.40;;;-151.14;100.00;62537.16;5018292;28;19935;-80
2022/12/22 09:42:28;;;;;;;;;;;0.80;86.40;;;-151.14;100.00;62537.16;5018403;28;19920;-80
2022/12/22 09:44:56;;;;;;;;;;;0.80;86.40;;;-151.14;100.00;62537.16;5022187;28;19921;-80
2022/12/22 09:47:34;;;;;;;;;;;0.80;86.40;;;-151.14;100.00;62537.16;5018101;28;19921;-80
2022/12/22 09:50:24;;;;;;;;;;;0.80;86.40;;;-151.14;100.00;62537.16;5035036;28;19927;-80
2022/12/22 09:52:53;;;;;;;;;;;0.80;86.50;;;-151.14;100.00;62537.16;4995607;28;19922;-80
2022/12/22 09:55:31;;;;;;;;;;;0.80;86.40;;;-151.14;100.00;62537.16;4979049;28;19956;-80
2022/12/22 09:58:15;;;;;;;;;;;0.80;86.50;;;-151.14;100.00;62537.16;4995437;28;19928;-80
2022/12/22 10:00:43;;;;;;;;;;;0.80;86.50;;;-151.14;100.00;62537.16;4979332;28;19976;-80
2022/12/22 10:03:14;;;;;;;;;;;0.80;86.50;;;-151.14;100.00;62537.16;4995306;28;19944;-80
2022/12/22 10:05:45;;;;;;;;;;;0.80;86.50;;;-151.14;100.00;62537.16;4983159;28;19921;-80
2022/12/22 10:08:15;;;;;;;;;;;0.80;86.50;;;-151.14;100.00;62537.16;5034467;28;19979;-80
2022/12/22 10:10:43;;;;;;;;;;;0.80;86.50;;;-151.14;100.00;62537.16;5050944;28;20212;-80
2022/12/22 10:13:16;;;;;;;;;;;0.80;86.50;;;-151.14;100.00;62537.16;5034461;28;19935;-80
2022/12/22 10:15:44;;;;;;;;;;;0.80;86.50;;;-151.14;100.00;62537.16;5051827;28;20212;-80
2022/12/22 10:18:13;;;;;;;;;;;0.80;86.50;;;-151.14;100.00;62537.16;5034240;28;19927;-80
2022/12/22 10:20:43;;;;;;;;;;;0.80;86.50;;;-151.14;100.00;62537.16;5018012;28;19921;-80
2022/12/22 10:23:17;;;;;;;;;;;0.80;86.40;;;-151.14;100.00;62537.16;5017796;28;20098;-80
2022/12/22 10:25:59;;;;;;;;;;;0.80;86.40;;;-151.14;100.00;62537.16;5051712;28;19921;-80
2022/12/22 10:28:29;;;;;;;;;;;0.80;86.40;;;-151.14;100.00;62537.16;5017762;28;19927;-80
2022/12/22 10:31:13;;;;;;;;;;;0.80;86.40;;;-151.14;100.00;62537.16;5033004;28;19928;-80
2022/12/22 10:33:41;;;;;;;;;;;0.80;86.40;;;-151.14;100.00;62537.16;5013104;28;19921;-80
2022/12/22 10:36:11;;;;;;;;;;;0.80;86.50;;;-151.14;100.00;62537.16;5030353;28;19921;-80
2022/12/22 10:38:39;;;;;;;;;;;0.80;86.40;;;-151.14;100.00;62537.16;4998077;28;19928;-80
2022/12/22 10:41:13;;;;;;;;;;;0.80;86.40;;;-151.14;100.00;62537.16;5032006;28;19927;-80
2022/12/22 10:43:46;;;;;;;;;;;0.80;86.40;;;-151.14;100.00;62537.16;5031826;28;20131;-80
2022/12/22 10:46:14;;;;;;;;;;;0.80;86.40;;;-151.14;100.00;62537.16;5031429;28;19980;-81
2022/12/22 10:48:44;;;;;;;;;;;0.80;86.40;;;-151.14;100.00;62537.16;5014012;28;20442;-80
2022/12/22 10:51:14;;;;;;;;;;;0.80;86.40;;;-151.14;100.00;62537.16;4998138;28;19921;-80
2022/12/22 10:53:47;;;;;;;;;;;0.70;86.40;;;-151.14;100.00;62537.16;4997631;28;19921;-80
2022/12/22 10:56:22;;;;;;;;;;;0.70;86.40;;;-151.14;100.00;62537.16;5013768;28;19922;-80
2022/12/22 10:58:51;;;;;;;;;;;0.70;86.40;;;-151.14;100.00;62537.16;5014242;28;19921;-80
2022/12/22 11:01:28;;;;;;;;;;;0.80;86.40;;;-151.14;100.00;62537.16;5014075;28;20120;-80
2022/12/22 11:03:56;;;;;;;;;;;0.80;86.30;;;-151.14;100.00;62537.16;5030139;28;20214;-80
2022/12/22 11:06:26;;;;;;;;;;;0.70;86.20;;;-151.14;100.00;62537.16;5013754;28;19921;-81
2022/12/22 11:08:54;;;;;;;;;;;0.80;86.20;;;-151.14;100.00;62537.16;5013855;28;19921;-81
2022/12/22 11:11:33;;;;;;;;;;;0.70;86.20;;;-151.14;100.00;62537.16;4997628;28;19944;-80
2022/12/22 11:14:08;;;;;;;;;;;0.70;86.20;;;-151.14;100.00;62537.16;5013690;28;19921;-80
2022/12/22 11:16:40;;;;;;;;;;;0.80;86.10;;;-151.14;100.00;62537.16;5013154;28;19921;-80
2022/12/22 11:19:17;;;;;;;;;;;0.80;86.10;;;-151.14;100.00;62537.16;5013633;28;19922;-81
2022/12/22 11:21:49;;;;;;;;;;;0.80;86.20;;;-151.14;100.00;62537.16;5013873;28;20227;-81
2022/12/22 11:24:25;;;;;;;;;;;0.70;86.20;;;-151.14;100.00;62537.16;5013450;28;20120;-80
2022/12/22 11:26:59;;;;;;;;;;;0.80;86.30;;;-151.14;100.00;62537.16;5013476;28;19921;-80
2022/12/22 11:29:36;;;;;;;;;;;0.80;86.20;;;-151.14;100.00;62537.16;5013638;28;19928;-80
2022/12/22 11:32:14;;;;;;;;;;;0.80;86.20;;;-151.14;100.00;62537.16;5013753;28;19955;-81
2022/12/22 11:34:50;;;;;;;;;;;0.80;86.20;;;-151.14;100.00;62537.16;4996783;28;19921;-80
2022/12/22 11:37:27;;;;;;;;;;;0.80;86.10;;;-151.14;100.00;62537.16;5030074;28;19921;-80
2022/12/22 11:39:58;;;;;;;;;;;0.80;86.00;;;-151.14;100.00;62537.16;5029933;28;19927;-79
2022/12/22 11:42:44;;;;;;;;;;;0.80;86.00;;;-151.14;100.00;62537.16;5013767;28;19927;-80
2022/12/22 11:45:21;;;;;;;;;;;0.90;86.00;;;-151.14;100.00;62537.16;5013233;28;20212;-80
2022/12/22 11:47:53;;;;;;;;;;;0.90;85.90;;;-151.14;100.00;62537.16;5013404;28;19921;-80
2022/12/22 11:50:29;;;;;;;;;;;0.80;85.80;;;-151.14;100.00;62537.16;4997309;28;19922;-80
2022/12/22 11:53:05;;;;;;;;;;;0.80;85.80;;;-151.14;100.00;62537.16;5020034;28;19921;-80
2022/12/22 11:55:33;;;;;;;;;;;0.80;85.80;;;-151.14;100.00;62537.16;5016228;28;19921;-80
2022/12/22 11:58:13;;;;;;;;;;;0.80;85.70;;;-151.14;100.00;62537.16;5026739;28;19928;-80
2022/12/22 12:00:43;;;;;;;;;;;0.90;85.80;;;-151.14;100.00;62537.16;5013403;28;19921;-80
2022/12/22 12:03:44;;;;;;;;;;;0.80;85.70;;;-151.14;100.00;62537.16;5013206;28;20217;-80
2022/12/22 12:06:35;;;;;;;;;;;0.90;85.80;;;-151.14;100.00;62537.16;5012856;28;19928;-80
2022/12/22 12:09:30;;;;;;;;;;;0.80;85.70;;;-151.14;100.00;62537.16;5021992;28;20120;-80
2022/12/22 12:12:07;;;;;;;;;;;0.80;85.70;;;-151.14;100.00;62537.16;5013085;28;19928;-80
2022/12/22 12:14:38;;;;;;;;;;;0.90;85.90;;;-151.14;100.00;62537.16;5013012;28;19928;-80
2022/12/22 12:17:11;;;;;;;;;;;0.90;85.90;;;-151.14;100.00;62537.16;4996760;28;19921;-80
2022/12/22 12:19:50;;;;;;;;;;;0.80;85.80;;;-151.14;100.00;62537.16;5030859;28;20361;-80
2022/12/22 12:22:32;;;;;;;;;;;0.80;85.70;;;-151.14;100.00;62537.16;5030777;28;19927;-80
2022/12/22 12:25:01;;;;;;;;;;;0.80;85.70;;;-151.14;100.00;62537.16;5029973;28;19929;-80
2022/12/22 12:27:37;;;;;;;;;;;0.80;85.60;;;-151.14;100.00;62537.16;5013206;28;19921;-80
2022/12/22 12:30:08;;;;;;;;;;;0.80;85.60;;;-151.14;100.00;62537.16;5016240;28;19922;-80
2022/12/22 12:32:38;;;;;;;;;;;0.80;85.70;;;-151.14;100.00;62537.16;5016458;28;20125;-80
2022/12/22 12:35:10;;;;;;;;;;;0.90;85.70;;;-151.14;100.00;62537.16;5015728;28;19929;-80
2022/12/22 12:37:38;;;;;;;;;;;0.80;85.60;;;-151.14;100.00;62537.16;5016446;28;19921;-80
2022/12/22 12:40:20;;;;;;;;;;;0.90;85.70;;;-151.14;100.00;62537.16;5016307;28;19921;-80
2022/12/22 12:42:48;;;;;;;;;;;0.90;85.70;;;-151.14;100.00;62537.16;5016246;28;19921;-80
2022/12/22 12:45:32;;;;;;;;;;;0.80;85.60;;;-151.14;100.00;62537.16;5015517;28;19928;-80
2022/12/22 12:48:33;;;;;;;;;;;0.80;85.60;;;-151.14;100.00;62537.16;5015951;28;19922;-80
2022/12/22 12:51:01;;;;;;;;;;;0.80;85.70;;;-151.14;100.00;62537.16;5016070;28;19927;-80
2022/12/22 12:53:29;;;;;;;;;;;0.80;85.70;;;-151.14;100.00;62537.16;4999482;28;19927;-80
2022/12/22 12:56:03;;;;;;;;;;;0.80;85.70;;;-151.14;100.00;62537.16;4999242;28;19927;-80
2022/12/22 12:58:48;;;;;;;;;;;0.80;85.70;;;-151.14;100.00;62537.16;4999693;28;19927;-80
2022/12/22 13:01:54;;;;;;;;;;;0.80;85.70;;;-151.14;100.00;62537.16;5016127;28;19921;-80
2022/12/22 13:05:02;;;;;;;;;;;0.80;85.70;;;-151.14;100.00;62537.16;4999259;28;19921;-80
2022/12/22 13:08:05;;;;;;;;;;;0.80;85.80;;;-151.14;100.00;62537.16;5015758;28;19922;-80
2022/12/22 13:10:34;;;;;;;;;;;0.80;85.90;;;-151.14;100.00;62537.16;4999647;28;19921;-80
2022/12/22 13:13:03;;;;;;;;;;;0.80;85.90;;;-151.14;100.00;62537.16;5015841;28;19928;-80
2022/12/22 13:15:32;;;;;;;;;;;0.80;85.90;;;-151.14;100.00;62537.16;5015084;28;20120;-80
2022/12/22 13:18:00;;;;;;;;;;;0.80;85.90;;;-151.14;100.00;62537.16;4999439;28;19921;-80
2022/12/22 13:20:29;;;;;;;;;;;0.80;85.80;;;-151.14;100.00;62537.16;5030904;28;19921;-80
2022/12/22 13:22:58;;;;;;;;;;;0.80;85.90;;;-151.14;100.00;62537.16;5018763;28;19927;-80
2022/12/22 13:25:29;;;;;;;;;;;0.70;85.90;;;-151.14;100.00;62537.16;5020075;28;19921;-80
2022/12/22 13:27:57;;;;;;;;;;;0.80;86.00;;;-151.14;100.00;62537.16;5015460;28;19921;-80
2022/12/22 13:30:26;;;;;;;;;;;0.80;86.00;;;-151.14;100.00;62537.16;5015813;28;19921;-80
2022/12/22 13:32:54;;;;;;;;;;;0.80;86.00;;;-151.14;100.00;62537.16;5015450;28;19921;-80
2022/12/22 13:35:22;;;;;;;;;;;0.80;86.00;;;-151.14;100.00;62537.16;5010815;28;19927;-80
2022/12/22 13:37:52;;;;;;;;;;;0.80;86.10;;;-151.14;100.00;62537.16;5034983;28;20116;-80
2022/12/22 13:40:21;;;;;;;;;;;0.80;86.10;;;-151.14;100.00;62537.16;5006216;28;19922;-81
2022/12/22 13:42:50;;;;;;;;;;;0.70;86.10;;;-151.14;100.00;62537.16;5015360;28;19928;-80
2022/12/22 13:45:24;;;;;;;;;;;0.80;86.10;;;-151.14;100.00;62537.16;4998333;28;19921;-80
2022/12/22 13:47:53;;;;;;;;;;;0.80;86.10;;;-151.14;100.00;62537.16;5015021;28;20251;-80
2022/12/22 13:50:23;;;;;;;;;;;0.80;86.00;;;-151.14;100.00;62537.16;5009116;28;20143;-80
2022/12/22 13:52:51;;;;;;;;;;;0.70;86.00;;;-151.14;100.00;62537.16;5018400;28;20117;-80
2022/12/22 13:55:21;;;;;;;;;;;0.80;86.00;;;-151.14;100.00;62537.16;5017898;28;19935;-81
2022/12/22 13:57:49;;;;;;;;;;;0.80;86.10;;;-151.14;100.00;62537.16;5018141;28;19921;-80
2022/12/22 14:00:19;;;;;;;;;;;0.70;86.00;;;-151.14;100.00;62537.16;5018334;28;19920;-80
2022/12/22 14:02:47;;;;;;;;;;;0.70;86.10;;;-151.14;100.00;62537.16;5034615;28;20212;-80
2022/12/22 14:05:16;;;;;;;;;;;0.70;86.10;;;-151.14;100.00;62537.16;5017782;28;20121;-80
2022/12/22 14:08:01;;;;;;;;;;;0.70;86.10;;;-151.14;100.00;62537.16;5018047;28;20217;-80
2022/12/22 14:10:32;;;;;;;;;;;0.70;86.20;;;-151.14;100.00;62537.16;5018204;28;19921;-80
2022/12/22 14:13:02;;;;;;;;;;;0.70;86.10;;;-151.14;100.00;62537.16;5017867;28;19927;-80
2022/12/22 14:15:30;;;;;;;;;;;0.70;86.20;;;-151.14;100.00;62537.16;5034016;28;19927;-80
2022/12/22 14:17:58;;;;;;;;;;;0.70;86.20;;;-151.14;100.00;62537.16;5034328;28;19927;-80
2022/12/22 14:20:29;;;;;;;;;;;0.70;86.20;;;-151.14;100.00;62537.16;5034524;28;19921;-80
2022/12/22 14:23:03;;;;;;;;;;;0.70;86.20;;;-151.14;100.00;62537.16;5034461;28;19921;-80
2022/12/22 14:25:32;;;;;;;;;;;0.70;86.20;;;-151.14;100.00;62537.16;5034032;28;19927;-80
2022/12/22 14:28:00;;;;;;;;;;;0.70;86.20;;;-151.14;100.00;62537.16;5034439;28;20112;-80
2022/12/22 14:30:29;;;;;;;;;;;0.70;86.30;;;-151.14;100.00;62537.16;5018052;28;20094;-80
2022/12/22 14:32:57;;;;;;;;;;;0.70;86.30;;;-151.14;100.00;62537.16;5034189;28;19927;-80
2022/12/22 14:35:30;;;;;;;;;;;0.70;86.30;;;-151.14;100.00;62537.16;5017285;28;19929;-80
2022/12/22 14:38:16;;;;;;;;;;;0.70;86.40;;;-151.14;100.00;62537.16;5017511;28;19928;-80
2022/12/22 14:40:44;;;;;;;;;;;0.70;86.40;;;-151.14;100.00;62537.16;5017823;28;19927;-80
2022/12/22 14:43:23;;;;;;;;;;;0.60;86.20;;;-151.14;100.00;62537.16;5034174;28;19927;-80
2022/12/22 14:45:51;;;;;;;;;;;0.70;86.40;;;-151.14;100.00;62537.16;5010874;28;19927;-80
2022/12/22 14:48:22;;;;;;;;;;;0.70;86.40;;;-151.14;100.00;62537.16;5030535;28;19921;-80
2022/12/22 14:50:51;;;;;;;;;;;0.60;86.30;;;-151.14;100.00;62537.16;5014505;28;19922;-80
2022/12/22 14:53:22;;;;;;;;;;;0.60;86.30;;;-151.14;100.00;62537.16;5014149;28;19927;-81
2022/12/22 14:55:50;;;;;;;;;;;0.70;86.40;;;-151.14;100.00;62537.16;4997514;28;19925;-81
2022/12/22 14:58:20;;;;;;;;;;;0.70;86.50;;;-151.14;100.00;62537.16;5014042;28;19921;-81
2022/12/22 15:00:48;;;;;;;;;;;0.70;86.40;;;-151.14;100.00;62537.16;4997858;28;19921;-81
2022/12/22 15:03:31;;;;;;;;;;;0.70;86.50;;;-151.14;100.00;62537.16;5014051;28;20251;-80
2022/12/22 15:06:21;;;;;;;;;;;0.60;86.30;;;-151.14;100.00;62537.16;4997516;28;19921;-81
2022/12/22 15:08:51;;;;;;;;;;;0.60;86.40;;;-151.14;100.00;62537.16;5031691;28;19921;-80
2022/12/22 15:11:20;;;;;;;;;;;0.70;86.40;;;-151.14;100.00;62537.16;5013846;28;19943;-80
2022/12/22 15:13:48;;;;;;;;;;;0.60;86.30;;;-151.14;100.00;62537.16;5013981;28;19921;-80
2022/12/22 15:16:18;;;;;;;;;;;0.70;86.50;;;-151.14;100.00;62537.16;5013779;28;20108;-80
2022/12/22 15:18:46;;;;;;;;;;;0.60;86.30;;;-151.14;100.00;62537.16;5013634;28;20212;-81